createdAt,value
2023-04-30T00:01:06.985Z,11.37
2023-04-30T00:03:39.314Z,11.32
2023-04-30T00:06:11.548Z,11.29
2023-04-30T00:08:47.190Z,11.25
2023-04-30T00:11:19.483Z,11.20
2023-04-30T00:13:52.030Z,11.17
2023-04-30T00:16:24.377Z,11.17
2023-04-30T00:18:56.625Z,11.15
2023-04-30T00:21:29.264Z,11.09
2023-04-30T00:24:01.671Z,11.06
2023-04-30T00:26:33.845Z,11.07
2023-04-30T00:29:07.059Z,11.04
2023-04-30T00:31:39.746Z,10.98
2023-04-30T00:34:12.671Z,10.92
2023-04-30T00:36:45.244Z,10.90
2023-04-30T00:39:18.655Z,10.89
2023-04-30T00:41:51.308Z,10.86
2023-04-30T00:44:23.516Z,10.83
2023-04-30T00:46:56.004Z,10.83
2023-04-30T00:49:31.035Z,10.83
2023-04-30T00:52:03.712Z,10.83
2023-04-30T00:54:36.485Z,10.82
2023-04-30T00:57:13.438Z,10.82
2023-04-30T00:59:46.951Z,10.83
2023-04-30T01:02:20.148Z,10.82
2023-04-30T01:04:54.111Z,10.82
2023-04-30T01:07:28.612Z,10.82
2023-04-30T01:10:01.320Z,10.81
2023-04-30T01:12:39.093Z,10.78
2023-04-30T01:15:20.058Z,10.75
2023-04-30T01:17:58.666Z,10.72
2023-04-30T01:20:33.571Z,10.71
2023-04-30T01:23:15.647Z,10.70
2023-04-30T01:26:02.519Z,10.68
2023-04-30T01:28:37.041Z,10.66
2023-04-30T01:31:17.775Z,10.61
2023-04-30T01:33:50.092Z,10.54
2023-04-30T01:36:38.234Z,10.46
2023-04-30T01:39:28.236Z,10.40
2023-04-30T01:42:09.231Z,10.35
2023-04-30T01:44:56.211Z,10.32
2023-04-30T01:47:36.224Z,10.27
2023-04-30T01:50:18.909Z,10.19
2023-04-30T01:52:59.046Z,10.10
2023-04-30T01:55:39.300Z,10.03
2023-04-30T01:58:14.163Z,9.99
2023-04-30T02:00:46.601Z,9.92
2023-04-30T02:03:19.077Z,9.86
2023-04-30T02:05:51.901Z,9.81
2023-04-30T02:08:24.087Z,9.70
2023-04-30T02:10:59.083Z,9.56
2023-04-30T02:13:31.228Z,9.44
2023-04-30T02:16:04.449Z,9.39
2023-04-30T02:18:39.407Z,9.33
2023-04-30T02:21:14.478Z,9.30
2023-04-30T02:23:47.135Z,9.24
2023-04-30T02:26:22.413Z,9.21
2023-04-30T02:28:56.301Z,9.14
2023-04-30T02:31:28.860Z,9.07
2023-04-30T02:34:01.082Z,9.01
2023-04-30T02:36:36.756Z,8.95
2023-04-30T02:39:10.976Z,8.90
2023-04-30T02:41:46.147Z,8.88
2023-04-30T02:44:18.435Z,8.82
2023-04-30T02:46:50.715Z,8.78
2023-04-30T02:49:23.315Z,8.73
2023-04-30T02:51:57.176Z,8.71
2023-04-30T02:54:30.381Z,8.67
2023-04-30T02:57:02.710Z,8.59
2023-04-30T02:59:35.018Z,8.51
2023-04-30T03:02:07.267Z,8.46
2023-04-30T03:04:39.414Z,8.41
2023-04-30T03:07:11.719Z,8.36
2023-04-30T03:09:44.841Z,8.33
2023-04-30T03:12:17.352Z,8.32
2023-04-30T03:14:49.865Z,8.30
2023-04-30T03:17:23.708Z,8.30
2023-04-30T03:19:58.379Z,8.30
2023-04-30T03:22:31.462Z,8.28
2023-04-30T03:25:03.805Z,8.28
2023-04-30T03:27:36.074Z,8.25
2023-04-30T03:30:09.899Z,8.25
2023-04-30T03:32:42.129Z,8.23
2023-04-30T03:35:14.353Z,8.22
2023-04-30T03:37:46.528Z,8.20
2023-04-30T03:40:18.877Z,8.19
2023-04-30T03:42:51.501Z,8.19
2023-04-30T03:45:27.088Z,8.18
2023-04-30T03:48:02.800Z,8.17
2023-04-30T03:50:38.478Z,8.15
2023-04-30T03:53:13.871Z,8.15
2023-04-30T03:55:47.388Z,8.15
2023-04-30T03:58:22.836Z,8.14
2023-04-30T04:00:56.469Z,8.14
2023-04-30T04:03:32.410Z,8.12
2023-04-30T04:06:05.555Z,8.10
2023-04-30T04:08:43.454Z,8.11
2023-04-30T04:11:21.411Z,8.09
2023-04-30T04:13:54.329Z,8.12
2023-04-30T04:16:28.389Z,8.12
2023-04-30T04:19:01.110Z,8.14
2023-04-30T04:21:34.099Z,8.18
2023-04-30T04:24:08.867Z,8.20
2023-04-30T04:26:41.453Z,8.23
2023-04-30T04:29:14.511Z,8.28
2023-04-30T04:31:49.281Z,8.31
2023-04-30T04:34:21.961Z,8.35
2023-04-30T04:36:54.118Z,8.39
2023-04-30T04:39:29.110Z,8.45
2023-04-30T04:42:01.397Z,8.52
2023-04-30T04:44:33.681Z,8.55
2023-04-30T04:47:06.267Z,8.59
2023-04-30T04:49:38.721Z,8.63
2023-04-30T04:52:11.594Z,8.67
2023-04-30T04:54:43.772Z,8.70
2023-04-30T04:57:16.066Z,8.71
2023-04-30T04:59:51.188Z,8.72
2023-04-30T05:02:24.212Z,8.72
2023-04-30T05:04:57.074Z,8.78
2023-04-30T05:07:30.054Z,8.79
2023-04-30T05:10:02.351Z,8.80
2023-04-30T05:12:34.908Z,8.80
2023-04-30T05:15:08.046Z,8.80
2023-04-30T05:17:40.345Z,8.81
2023-04-30T05:20:14.690Z,8.81
2023-04-30T05:22:46.918Z,8.82
2023-04-30T05:25:19.928Z,8.82
2023-04-30T05:27:52.215Z,8.87
2023-04-30T05:30:24.705Z,8.89
2023-04-30T05:32:59.339Z,8.91
2023-04-30T05:35:31.818Z,8.97
2023-04-30T05:38:04.252Z,9.03
2023-04-30T05:40:36.440Z,9.21
2023-04-30T05:43:11.051Z,9.37
2023-04-30T05:45:43.698Z,9.47
2023-04-30T05:48:16.136Z,9.56
2023-04-30T05:50:48.637Z,9.60
2023-04-30T05:53:20.829Z,9.59
2023-04-30T05:55:53.514Z,9.57
2023-04-30T05:58:26.418Z,9.60
2023-04-30T06:00:59.290Z,9.69
2023-04-30T06:03:31.368Z,9.82
2023-04-30T06:06:03.561Z,9.94
2023-04-30T06:08:35.890Z,10.02
2023-04-30T06:11:08.755Z,10.12
2023-04-30T06:13:41.628Z,10.27
2023-04-30T06:16:13.854Z,10.42
2023-04-30T06:18:46.164Z,10.56
2023-04-30T06:21:18.419Z,10.65
2023-04-30T06:23:50.569Z,10.75
2023-04-30T06:26:23.143Z,10.88
2023-04-30T06:32:04.927Z,11.21
2023-04-30T06:34:39.955Z,11.24
2023-04-30T06:37:12.217Z,11.26
2023-04-30T06:39:44.292Z,11.30
2023-04-30T06:42:16.979Z,11.36
2023-04-30T06:44:49.194Z,11.42
2023-04-30T06:47:21.304Z,11.49
2023-04-30T06:49:53.690Z,11.57
2023-04-30T06:52:26.104Z,11.70
2023-04-30T06:54:58.421Z,11.86
2023-04-30T06:57:40.046Z,11.98
2023-04-30T07:00:16.980Z,12.13
2023-04-30T07:02:52.952Z,12.24
2023-04-30T07:05:28.139Z,12.29
2023-04-30T07:08:03.512Z,12.35
2023-04-30T07:10:39.112Z,12.44
2023-04-30T07:13:11.654Z,12.51
2023-04-30T07:15:44.058Z,12.61
2023-04-30T07:18:19.875Z,12.75
2023-04-30T07:20:51.958Z,12.90
2023-04-30T07:23:24.303Z,12.99
2023-04-30T07:25:56.590Z,13.07
2023-04-30T07:28:32.531Z,13.12
2023-04-30T07:31:16.852Z,13.20
2023-04-30T07:33:50.881Z,13.39
2023-04-30T07:36:23.000Z,13.48
2023-04-30T07:38:55.142Z,13.46
2023-04-30T07:41:30.273Z,13.45
2023-04-30T07:44:04.772Z,13.41
2023-04-30T07:46:37.795Z,13.32
2023-04-30T07:49:10.081Z,13.12
2023-04-30T07:51:43.114Z,12.95
2023-04-30T07:54:15.349Z,12.92
2023-04-30T07:56:48.975Z,12.82
2023-04-30T07:59:21.642Z,12.84
2023-04-30T08:01:53.998Z,12.99
2023-04-30T08:04:28.758Z,13.22
2023-04-30T08:07:02.023Z,13.39
2023-04-30T08:09:36.490Z,13.64
2023-04-30T08:12:09.765Z,13.77
2023-04-30T08:14:42.070Z,13.92
2023-04-30T08:17:14.168Z,14.10
2023-04-30T08:19:51.543Z,14.28
2023-04-30T08:22:26.155Z,14.49
2023-04-30T08:24:58.286Z,14.70
2023-04-30T08:27:32.002Z,14.65
2023-04-30T08:30:04.420Z,14.64
2023-04-30T08:32:38.271Z,14.78
2023-04-30T08:35:12.153Z,14.73
2023-04-30T08:37:44.282Z,14.65
2023-04-30T08:40:16.824Z,14.80
2023-04-30T08:42:52.931Z,14.82
2023-04-30T08:45:25.997Z,14.66
2023-04-30T08:48:01.156Z,14.70
2023-04-30T08:50:38.085Z,14.82
2023-04-30T08:53:21.627Z,14.76
2023-04-30T08:55:54.156Z,14.70
2023-04-30T08:58:26.475Z,14.57
2023-04-30T09:01:00.872Z,14.45
2023-04-30T09:03:35.556Z,14.64
2023-04-30T09:06:08.171Z,14.72
2023-04-30T09:08:48.189Z,14.83
2023-04-30T09:11:29.187Z,15.10
2023-04-30T09:14:03.491Z,15.27
2023-04-30T09:16:52.802Z,15.49
2023-04-30T09:19:30.614Z,15.59
2023-04-30T09:22:22.946Z,15.65
2023-04-30T09:24:55.144Z,15.67
2023-04-30T09:27:37.033Z,15.73
2023-04-30T09:30:34.139Z,15.79
2023-04-30T09:33:09.917Z,15.86
2023-04-30T09:35:43.704Z,16.09
2023-04-30T09:38:31.205Z,16.17
2023-04-30T09:41:03.817Z,16.22
2023-04-30T09:43:46.323Z,16.38
2023-04-30T09:46:19.855Z,16.46
2023-04-30T09:48:59.865Z,16.44
2023-04-30T09:51:32.670Z,16.41
2023-04-30T09:54:09.221Z,16.48
2023-04-30T09:56:44.943Z,16.40
2023-04-30T09:59:20.358Z,16.46
2023-04-30T10:01:54.559Z,16.56
2023-04-30T10:04:28.515Z,16.56
2023-04-30T10:07:09.303Z,16.67
2023-04-30T10:09:46.398Z,16.82
2023-04-30T10:12:22.314Z,17.04
2023-04-30T10:15:07.858Z,17.05
2023-04-30T10:17:44.287Z,17.08
2023-04-30T10:20:18.795Z,17.10
2023-04-30T10:22:55.369Z,17.19
2023-04-30T10:25:28.464Z,17.30
2023-04-30T10:28:03.950Z,17.32
2023-04-30T10:30:39.535Z,17.34
2023-04-30T10:33:24.721Z,17.21
2023-04-30T10:36:01.780Z,17.07
2023-04-30T10:38:39.442Z,17.09
2023-04-30T10:41:11.980Z,17.12
2023-04-30T10:43:44.397Z,17.07
2023-04-30T10:46:24.978Z,17.08
2023-04-30T10:48:57.680Z,17.09
2023-04-30T10:51:49.645Z,17.09
2023-04-30T10:54:28.815Z,17.19
2023-04-30T10:57:17.697Z,17.21
2023-04-30T10:59:56.907Z,17.22
2023-04-30T11:02:42.695Z,17.18
2023-04-30T11:05:20.281Z,17.15
2023-04-30T11:07:59.272Z,17.07
2023-04-30T11:10:35.756Z,17.04
2023-04-30T11:13:12.960Z,17.04
2023-04-30T11:15:48.270Z,17.02
2023-04-30T11:18:21.844Z,16.99
2023-04-30T11:20:58.595Z,16.98
2023-04-30T11:23:39.315Z,16.95
2023-04-30T11:26:21.291Z,17.04
2023-04-30T11:28:54.585Z,17.09
2023-04-30T11:31:35.943Z,17.03
2023-04-30T11:34:08.924Z,16.99
2023-04-30T11:36:46.329Z,16.97
2023-04-30T11:39:21.229Z,17.01
2023-04-30T11:41:53.430Z,16.97
2023-04-30T11:44:30.206Z,16.97
2023-04-30T11:47:02.903Z,16.95
2023-04-30T11:49:38.398Z,16.99
2023-04-30T11:52:14.246Z,17.04
2023-04-30T11:55:01.728Z,17.06
2023-04-30T11:57:42.938Z,17.01
2023-04-30T12:00:19.972Z,17.03
2023-04-30T12:02:52.913Z,16.98
2023-04-30T12:05:28.746Z,17.00
2023-04-30T12:08:04.451Z,17.13
2023-04-30T12:10:37.231Z,17.22
2023-04-30T12:13:09.428Z,17.30
2023-04-30T12:15:44.127Z,17.44
2023-04-30T12:18:16.645Z,17.41
2023-04-30T12:20:48.982Z,17.39
2023-04-30T12:23:23.851Z,17.41
2023-04-30T12:25:55.973Z,17.42
2023-04-30T12:28:29.119Z,17.45
2023-04-30T12:31:02.459Z,17.51
2023-04-30T12:33:35.167Z,17.50
2023-04-30T12:36:11.157Z,17.39
2023-04-30T12:38:47.244Z,17.39
2023-04-30T12:41:22.989Z,17.46
2023-04-30T12:44:14.583Z,17.43
2023-04-30T12:46:48.199Z,17.50
2023-04-30T12:49:29.037Z,17.60
2023-04-30T12:52:02.375Z,17.69
2023-04-30T12:54:36.224Z,17.77
2023-04-30T12:57:13.429Z,17.70
2023-04-30T13:00:01.388Z,17.62
2023-04-30T13:02:33.711Z,17.63
2023-04-30T13:05:06.385Z,17.62
2023-04-30T13:07:41.803Z,17.61
2023-04-30T13:10:14.546Z,17.53
2023-04-30T13:12:46.585Z,17.56
2023-04-30T13:15:18.934Z,17.56
2023-04-30T13:17:51.572Z,17.60
2023-04-30T13:20:24.958Z,17.61
2023-04-30T13:22:57.646Z,17.62
2023-04-30T13:25:29.784Z,17.59
2023-04-30T13:28:02.073Z,17.54
2023-04-30T13:30:35.028Z,17.54
2023-04-30T13:33:07.395Z,17.62
2023-04-30T13:35:39.583Z,17.68
2023-04-30T13:38:12.076Z,17.70
2023-04-30T13:40:44.177Z,17.64
2023-04-30T13:43:16.291Z,17.55
2023-04-30T13:45:48.460Z,17.56
2023-04-30T13:48:20.696Z,17.60
2023-04-30T13:50:53.022Z,17.67
2023-04-30T13:53:25.202Z,17.67
2023-04-30T13:55:59.469Z,17.68
2023-04-30T13:58:31.625Z,17.73
2023-04-30T14:01:06.634Z,17.66
2023-04-30T14:03:42.393Z,17.61
2023-04-30T14:06:17.461Z,17.63
2023-04-30T14:08:49.617Z,17.59
2023-04-30T14:11:21.974Z,17.55
2023-04-30T14:13:54.631Z,17.59
2023-04-30T14:16:30.531Z,17.57
2023-04-30T14:19:03.282Z,17.52
2023-04-30T14:21:36.083Z,17.58
2023-04-30T14:24:12.776Z,17.66
2023-04-30T14:26:45.632Z,17.65
2023-04-30T14:29:20.457Z,17.61
2023-04-30T14:31:54.286Z,17.60
2023-04-30T14:34:27.835Z,17.54
2023-04-30T14:37:02.049Z,17.45
2023-04-30T14:39:34.557Z,17.44
2023-04-30T14:42:06.671Z,17.39
2023-04-30T14:44:41.553Z,17.36
2023-04-30T14:47:14.650Z,17.31
2023-04-30T14:49:46.727Z,17.24
2023-04-30T14:52:18.778Z,17.16
2023-04-30T14:54:50.980Z,17.02
2023-04-30T14:57:23.741Z,16.93
2023-04-30T14:59:57.913Z,16.81
2023-04-30T15:02:30.330Z,16.76
2023-04-30T15:05:02.786Z,16.66
2023-04-30T15:07:35.075Z,16.62
2023-04-30T15:10:09.605Z,16.66
2023-04-30T15:12:44.985Z,16.66
2023-04-30T15:15:21.371Z,16.62
2023-04-30T15:17:53.589Z,16.51
2023-04-30T15:20:27.545Z,16.42
2023-04-30T15:23:00.183Z,16.36
2023-04-30T15:25:33.147Z,16.29
2023-04-30T15:28:05.389Z,16.19
2023-04-30T15:30:39.786Z,16.10
2023-04-30T15:33:12.603Z,16.01
2023-04-30T15:35:45.026Z,15.93
2023-04-30T15:38:17.237Z,15.84
2023-04-30T15:40:49.504Z,15.72
2023-04-30T15:43:23.278Z,15.56
2023-04-30T15:45:55.522Z,15.48
2023-04-30T15:48:27.825Z,15.47
2023-04-30T15:51:00.186Z,15.36
2023-04-30T15:53:32.418Z,15.29
2023-04-30T15:56:05.194Z,15.21
2023-04-30T15:58:38.423Z,15.14
2023-04-30T16:01:10.778Z,15.08
2023-04-30T16:03:45.444Z,15.03
2023-04-30T16:06:20.996Z,14.96
2023-04-30T16:08:55.984Z,14.91
2023-04-30T16:11:28.335Z,14.85
2023-04-30T16:14:00.579Z,14.85
2023-04-30T16:16:40.429Z,14.84
2023-04-30T16:19:14.042Z,14.79
2023-04-30T16:21:46.345Z,14.70
2023-04-30T16:24:18.575Z,14.65
2023-04-30T16:26:51.035Z,14.60
2023-04-30T16:29:23.196Z,14.54
2023-04-30T16:31:56.421Z,14.53
2023-04-30T16:34:28.755Z,14.50
2023-04-30T16:37:00.886Z,14.45
2023-04-30T16:39:33.222Z,14.40
2023-04-30T16:42:05.955Z,14.36
2023-04-30T16:44:38.080Z,14.35
2023-04-30T16:47:10.222Z,14.34
2023-04-30T16:49:42.427Z,14.32
2023-04-30T16:52:14.726Z,14.27
2023-04-30T16:54:46.970Z,14.23
2023-04-30T16:57:19.069Z,14.20
2023-04-30T16:59:51.551Z,14.18
2023-04-30T17:02:24.529Z,14.13
2023-04-30T17:04:57.688Z,14.04
2023-04-30T17:07:29.807Z,13.93
2023-04-30T17:10:01.911Z,13.87
2023-04-30T17:12:34.053Z,13.82
2023-04-30T17:15:07.978Z,13.74
2023-04-30T17:17:40.270Z,13.65
2023-04-30T17:20:13.657Z,13.64
2023-04-30T17:22:45.949Z,13.63
2023-04-30T17:25:18.253Z,13.60
2023-04-30T17:27:50.715Z,13.53
2023-04-30T17:30:22.897Z,13.45
2023-04-30T17:32:55.574Z,13.38
2023-04-30T17:35:28.007Z,13.35
2023-04-30T17:38:00.589Z,13.32
2023-04-30T17:40:33.225Z,13.30
2023-04-30T17:43:05.381Z,13.29
2023-04-30T17:45:38.256Z,13.24
2023-04-30T17:48:10.462Z,13.18
2023-04-30T17:50:42.658Z,13.13
2023-04-30T17:53:14.919Z,13.09
2023-04-30T17:55:47.467Z,13.01
2023-04-30T17:58:19.653Z,12.88
2023-04-30T18:00:51.798Z,12.72
2023-04-30T18:03:24.036Z,12.57
2023-04-30T18:05:56.308Z,12.43
2023-04-30T18:08:28.783Z,12.30
2023-04-30T18:11:03.052Z,12.15
2023-04-30T18:13:35.287Z,12.02
2023-04-30T18:16:08.469Z,11.86
2023-04-30T18:18:41.152Z,11.69
2023-04-30T18:21:14.712Z,11.51
2023-04-30T18:23:48.112Z,11.36
2023-04-30T18:26:22.293Z,11.22
2023-04-30T18:28:54.484Z,11.05
2023-04-30T18:31:26.676Z,10.91
2023-04-30T18:34:02.051Z,10.74
2023-04-30T18:36:34.409Z,10.57
2023-04-30T18:39:07.166Z,10.43
2023-04-30T18:41:40.057Z,10.29
2023-04-30T18:44:13.692Z,10.17
2023-04-30T18:46:45.814Z,10.01
2023-04-30T18:49:18.010Z,9.88
2023-04-30T18:51:50.416Z,9.77
2023-04-30T18:54:22.958Z,9.66
2023-04-30T18:56:55.403Z,9.58
2023-04-30T18:59:28.907Z,9.44
2023-04-30T19:02:01.486Z,9.34
2023-04-30T19:04:33.890Z,9.25
2023-04-30T19:07:06.132Z,9.14
2023-04-30T19:09:38.761Z,9.04
2023-04-30T19:12:11.092Z,8.89
2023-04-30T19:14:44.464Z,8.76
2023-04-30T19:17:17.877Z,8.66
2023-04-30T19:19:51.276Z,8.54
2023-04-30T19:22:23.833Z,8.40
2023-04-30T19:24:56.054Z,8.28
2023-04-30T19:27:28.902Z,8.14
2023-04-30T19:30:00.987Z,8.00
2023-04-30T19:32:39.693Z,7.91
2023-04-30T19:35:15.205Z,7.83
2023-04-30T19:37:47.418Z,7.77
2023-04-30T19:40:20.033Z,7.67
2023-04-30T19:42:54.201Z,7.60
2023-04-30T19:45:27.032Z,7.47
2023-04-30T19:48:01.465Z,7.35
2023-04-30T19:50:33.685Z,7.26
2023-04-30T19:53:05.768Z,7.12
2023-04-30T19:55:38.649Z,7.03
2023-04-30T19:58:10.980Z,6.95
2023-04-30T20:00:46.187Z,6.84
2023-04-30T20:03:21.166Z,6.79
2023-04-30T20:05:56.414Z,6.73
2023-04-30T20:08:31.395Z,6.64
2023-04-30T20:11:03.963Z,6.58
2023-04-30T20:13:36.518Z,6.52
2023-04-30T20:16:12.421Z,6.48
2023-04-30T20:18:44.721Z,6.40
2023-04-30T20:21:19.282Z,6.36
2023-04-30T20:23:52.745Z,6.33
2023-04-30T20:26:25.902Z,6.29
2023-04-30T20:28:58.077Z,6.24
2023-04-30T20:31:32.928Z,6.18
2023-04-30T20:34:05.381Z,6.11
2023-04-30T20:36:38.156Z,6.04
2023-04-30T20:39:10.347Z,6.00
2023-04-30T20:41:43.688Z,5.97
2023-04-30T20:44:15.916Z,5.93
2023-04-30T20:46:48.392Z,5.87
2023-04-30T20:49:20.564Z,5.81
2023-04-30T20:51:52.667Z,5.76
2023-04-30T20:54:24.920Z,5.72
2023-04-30T20:56:57.095Z,5.66
2023-04-30T20:59:29.721Z,5.62
2023-04-30T21:02:01.973Z,5.56
2023-04-30T21:04:34.528Z,5.50
2023-04-30T21:07:07.546Z,5.45
2023-04-30T21:09:39.957Z,5.38
2023-04-30T21:12:14.458Z,5.36
2023-04-30T21:14:49.636Z,5.31
2023-04-30T21:17:21.900Z,5.26
2023-04-30T21:19:55.357Z,5.21
2023-04-30T21:22:27.975Z,5.17
2023-04-30T21:25:00.137Z,5.15
2023-04-30T21:27:33.544Z,5.09
2023-04-30T21:30:06.125Z,5.06
2023-04-30T21:32:38.397Z,5.03
2023-04-30T21:35:14.233Z,4.98
2023-04-30T21:37:47.056Z,4.97
2023-04-30T21:40:19.624Z,4.92
2023-04-30T21:42:52.720Z,4.85
2023-04-30T21:45:25.059Z,4.78
2023-04-30T21:47:59.425Z,4.74
2023-04-30T21:50:35.025Z,4.70
2023-04-30T21:53:07.573Z,4.64
2023-04-30T21:55:39.706Z,4.62
2023-04-30T21:58:14.795Z,4.58
2023-04-30T22:00:47.501Z,4.52
2023-04-30T22:03:19.713Z,4.47
2023-04-30T22:05:54.819Z,4.44
2023-04-30T22:08:27.324Z,4.38
2023-04-30T22:11:04.741Z,4.34
2023-04-30T22:13:37.555Z,4.34
2023-04-30T22:16:10.404Z,4.32
2023-04-30T22:18:42.541Z,4.25
2023-04-30T22:21:14.739Z,4.24
2023-04-30T22:23:47.553Z,4.22
2023-04-30T22:26:19.691Z,4.21
2023-04-30T22:28:51.869Z,4.18
2023-04-30T22:31:23.984Z,4.13
2023-04-30T22:33:56.212Z,4.04
2023-04-30T22:36:28.420Z,4.03
2023-04-30T22:39:00.535Z,3.99
2023-04-30T22:41:34.305Z,3.95
2023-04-30T22:44:07.223Z,3.95
2023-04-30T22:46:40.631Z,3.93
2023-04-30T22:49:23.755Z,3.89
2023-04-30T22:52:04.494Z,3.85
2023-04-30T22:54:36.765Z,3.82
2023-04-30T22:57:09.176Z,3.78
2023-04-30T22:59:41.418Z,3.75
2023-04-30T23:02:13.598Z,3.71
2023-04-30T23:04:45.913Z,3.69
2023-04-30T23:07:18.276Z,3.65
2023-04-30T23:09:51.156Z,3.63
2023-04-30T23:12:23.648Z,3.61
2023-04-30T23:14:55.833Z,3.57
2023-04-30T23:17:28.065Z,3.51
2023-04-30T23:20:00.388Z,3.46
2023-04-30T23:22:32.949Z,3.41
2023-04-30T23:25:05.270Z,3.38
2023-04-30T23:27:37.616Z,3.37
2023-04-30T23:30:11.931Z,3.32
2023-04-30T23:32:45.485Z,3.26
2023-04-30T23:35:17.868Z,3.23
2023-04-30T23:37:50.012Z,3.20
2023-04-30T23:40:22.219Z,3.17
2023-04-30T23:42:56.583Z,3.16
2023-04-30T23:45:29.867Z,3.13
2023-04-30T23:48:02.041Z,3.11
2023-04-30T23:50:34.466Z,3.09
2023-04-30T23:53:07.863Z,3.07
2023-04-30T23:55:43.505Z,3.05
2023-04-30T23:58:15.610Z,3.01
